Time;durP1;ratioP1;P1;durP2;ratioP2;P2;SDS_P1;SDS_P2;PMS_P1;PMS_P2;Temp;Humidity;BMP_temperature;BMP_pressure;BME280_temperature;BME280_humidity;BME280_pressure;Samples;Min_cycle;Max_cycle;Signal;HPM_P1;HPM_P2
2022/12/23 00:01:07;;;;;;;13.80;8.10;;;8.00;99.90;;;;;;6130658;23;20160;-92
2022/12/23 00:03:33;;;;;;;18.13;9.17;;;8.00;99.90;;;;;;6148764;23;20215;-90
2022/12/23 00:06:00;;;;;;;15.80;10.40;;;8.10;99.90;;;;;;6108971;23;20180;-90
2022/12/23 00:08:26;;;;;;;20.67;8.73;;;8.10;99.90;;;;;;6185794;23;20238;-90
2022/12/23 00:10:55;;;;;;;11.90;7.70;;;8.10;99.90;;;;;;6159421;23;20598;-91
2022/12/23 00:16:13;;;;;;;11.87;8.90;;;8.00;99.90;;;;;;6151532;23;20208;-90
2022/12/23 00:18:39;;;;;;;19.60;7.37;;;7.90;99.90;;;;;;6154227;23;20606;-90
2022/12/23 00:21:10;;;;;;;18.37;8.47;;;7.90;99.90;;;;;;6154141;23;20152;-90
2022/12/23 00:23:39;;;;;;;11.47;5.90;;;7.80;99.90;;;;;;6136630;23;20214;-90
2022/12/23 00:26:05;;;;;;;17.60;8.13;;;7.70;99.90;;;;;;6154470;23;20187;-90
2022/12/23 00:28:31;;;;;;;13.67;7.93;;;7.70;99.90;;;;;;6130303;23;20159;-90
2022/12/23 00:31:03;;;;;;;22.40;9.23;;;7.70;99.90;;;;;;6183666;23;20159;-89
2022/12/23 00:33:33;;;;;;;10.20;7.70;;;7.70;99.90;;;;;;6154507;23;20249;-89
2022/12/23 00:35:59;;;;;;;12.17;9.80;;;7.60;99.90;;;;;;6145125;23;20451;-90
2022/12/23 00:44:00;;;;;;;13.40;7.00;;;7.60;99.90;;;;;;6185416;23;20629;-90
2022/12/23 00:46:26;;;;;;;13.00;9.97;;;7.70;99.90;;;;;;6154544;23;20233;-90
2022/12/23 00:51:36;;;;;;;10.10;6.73;;;7.80;99.90;;;;;;6133900;23;20288;-90
2022/12/23 00:54:03;;;;;;;11.17;6.13;;;7.80;99.90;;;;;;6134590;23;20223;-90
2022/12/23 00:56:28;;;;;;;8.80;7.77;;;7.80;99.90;;;;;;6154544;23;20155;-90
2022/12/23 00:58:55;;;;;;;12.13;7.20;;;7.80;99.90;;;;;;6118920;23;20167;-91
2022/12/23 01:06:49;;;;;;;11.93;6.83;;;7.80;99.90;;;;;;6163299;23;20217;-91
2022/12/23 01:09:16;;;;;;;17.40;7.63;;;7.90;99.90;;;;;;6130067;23;20159;-90
2022/12/23 01:11:42;;;;;;;8.37;5.73;;;8.00;99.90;;;;;;6101301;23;20614;-90
2022/12/23 01:14:11;;;;;;;11.17;5.40;;;7.90;99.90;;;;;;6134440;23;20258;-90
2022/12/23 01:16:38;;;;;;;8.60;7.33;;;7.90;99.90;;;;;;6130458;23;20682;-90
2022/12/23 01:19:05;;;;;;;8.30;5.17;;;8.00;99.90;;;;;;6153808;23;20610;-91
2022/12/23 01:21:31;;;;;;;20.67;6.27;;;8.10;99.90;;;;;;6147560;23;20194;-90
2022/12/23 01:23:57;;;;;;;12.03;5.57;;;8.10;99.90;;;;;;6131558;23;20411;-91
2022/12/23 01:26:23;;;;;;;8.67;5.13;;;8.10;99.90;;;;;;6131603;23;20160;-91
2022/12/23 01:28:54;;;;;;;9.43;5.13;;;8.10;99.90;;;;;;6130112;23;20159;-90
2022/12/23 01:31:20;;;;;;;11.83;7.93;;;8.00;99.90;;;;;;6156149;23;20222;-90
2022/12/23 01:33:48;;;;;;;15.47;5.17;;;8.00;99.90;;;;;;6141238;23;20206;-91
2022/12/23 01:36:14;;;;;;;19.50;5.13;;;8.00;99.90;;;;;;6155896;23;20163;-90
2022/12/23 01:38:39;;;;;;;13.00;7.53;;;8.00;99.90;;;;;;6114360;23;20167;-90
2022/12/23 01:41:06;;;;;;;9.93;5.33;;;8.00;99.90;;;;;;6106988;23;20162;-90
2022/12/23 01:43:49;;;;;;;10.50;5.33;;;8.00;99.90;;;;;;6180348;23;20182;-90
2022/12/23 01:46:15;;;;;;;5.80;4.47;;;8.00;99.90;;;;;;6160787;23;20162;-91
2022/12/23 01:48:46;;;;;;;14.47;7.07;;;8.10;99.90;;;;;;6136977;23;20166;-90
2022/12/23 01:51:20;;;;;;;8.23;6.23;;;8.00;99.90;;;;;;6161167;23;20185;-91
2022/12/23 01:53:50;;;;;;;10.10;5.07;;;8.00;99.90;;;;;;6157525;23;20262;-90
2022/12/23 01:56:22;;;;;;;9.17;6.73;;;8.00;99.90;;;;;;6156324;23;20151;-90
2022/12/23 01:58:59;;;;;;;10.27;4.97;;;8.00;99.90;;;;;;6142231;23;20194;-90
2022/12/23 02:04:16;;;;;;;5.63;3.73;;;8.00;99.90;;;;;;6186774;23;20233;-91
2022/12/23 02:09:31;;;;;;;9.77;4.97;;;8.00;99.90;;;;;;6187002;23;20138;-91
2022/12/23 02:12:02;;;;;;;9.70;4.57;;;8.00;99.90;;;;;;6159223;23;20152;-90
2022/12/23 02:18:15;;;;;;;6.67;4.40;;;8.00;99.90;;;;;;6186639;23;20162;-91
2022/12/23 02:21:05;;;;;;;9.67;5.20;;;8.00;99.90;;;;;;6160626;23;20162;-90
2022/12/23 02:23:54;;;;;;;16.30;7.93;;;8.00;99.90;;;;;;6160218;23;20195;-91
2022/12/23 02:26:39;;;;;;;6.93;6.03;;;8.00;99.90;;;;;;6155631;23;20627;-90
2022/12/23 02:29:23;;;;;;;7.50;6.73;;;8.00;99.90;;;;;;6160362;23;20181;-89
2022/12/23 02:32:07;;;;;;;9.07;6.57;;;8.00;99.90;;;;;;6160535;23;20155;-90
2022/12/23 02:34:46;;;;;;;6.40;5.63;;;8.00;99.90;;;;;;6186673;23;20210;-89
2022/12/23 02:37:55;;;;;;;13.17;5.77;;;8.00;99.90;;;;;;6155083;23;20178;-90
2022/12/23 02:40:37;;;;;;;4.87;4.47;;;8.00;99.90;;;;;;6146716;23;20144;-89
2022/12/23 02:43:16;;;;;;;3.97;2.33;;;8.00;99.90;;;;;;6160109;23;20167;-91
2022/12/23 02:46:08;;;;;;;12.53;4.87;;;8.00;99.90;;;;;;6160760;23;20174;-90
2022/12/23 02:48:44;;;;;;;8.63;4.57;;;8.10;99.90;;;;;;6184230;23;20155;-90
2022/12/23 02:51:13;;;;;;;6.40;4.73;;;8.10;99.90;;;;;;6155276;23;20154;-90
2022/12/23 02:53:53;;;;;;;5.47;4.13;;;8.20;99.90;;;;;;6137957;23;20163;-90
2022/12/23 02:56:21;;;;;;;6.17;4.10;;;8.10;99.90;;;;;;6155538;23;20146;-89
2022/12/23 02:59:08;;;;;;;7.13;3.57;;;8.10;99.90;;;;;;6157156;23;20152;-90
2022/12/23 03:01:36;;;;;;;7.97;4.50;;;8.20;99.90;;;;;;6155248;23;20144;-90
2022/12/23 03:04:01;;;;;;;7.03;5.50;;;8.20;99.90;;;;;;6146576;23;20202;-91
2022/12/23 03:06:30;;;;;;;8.90;4.50;;;8.20;99.90;;;;;;6106416;23;20164;-91
2022/12/23 03:08:58;;;;;;;7.27;5.57;;;8.10;99.90;;;;;;6156624;23;20159;-90
2022/12/23 03:11:55;;;;;;;4.27;2.83;;;8.10;99.90;;;;;;6160392;23;20157;-91
2022/12/23 03:14:41;;;;;;;8.80;4.87;;;8.20;99.90;;;;;;6154637;23;20220;-91
2022/12/23 03:17:16;;;;;;;4.67;2.80;;;8.20;99.90;;;;;;6143452;23;20653;-88
2022/12/23 03:20:23;;;;;;;27.63;5.70;;;8.10;99.90;;;;;;6155396;23;20139;-90
2022/12/23 03:23:25;;;;;;;6.03;4.63;;;8.20;99.90;;;;;;6169984;23;20155;-91
2022/12/23 03:26:06;;;;;;;5.57;4.03;;;8.20;99.90;;;;;;6159909;23;20166;-91
2022/12/23 03:29:14;;;;;;;7.53;4.70;;;8.20;99.90;;;;;;6186159;23;20205;-90
2022/12/23 03:31:41;;;;;;;8.13;2.77;;;8.10;99.90;;;;;;6146071;23;20163;-90
2022/12/23 03:34:21;;;;;;;3.07;2.87;;;8.10;99.90;;;;;;6135308;23;20205;-91
2022/12/23 03:36:58;;;;;;;5.77;3.60;;;8.10;99.90;;;;;;6156997;23;20178;-89
2022/12/23 03:39:30;;;;;;;4.83;3.27;;;8.10;99.90;;;;;;6154954;23;20202;-91
2022/12/23 03:42:05;;;;;;;2.80;1.60;;;8.00;99.90;;;;;;6144771;23;20583;-90
2022/12/23 03:44:39;;;;;;;10.07;3.37;;;8.00;99.90;;;;;;6154999;23;20610;-90
2022/12/23 03:47:20;;;;;;;7.87;3.97;;;8.10;99.90;;;;;;6147648;23;20202;-90
2022/12/23 03:49:51;;;;;;;9.63;3.80;;;8.10;99.90;;;;;;6186102;23;20230;-90
2022/12/23 03:52:45;;;;;;;6.17;2.47;;;8.10;99.90;;;;;;6154920;23;20579;-90
2022/12/23 03:55:17;;;;;;;5.13;4.13;;;8.10;99.90;;;;;;6168401;23;20173;-91
2022/12/23 03:57:50;;;;;;;11.50;4.83;;;8.10;99.90;;;;;;6155424;23;20198;-91
2022/12/23 04:00:16;;;;;;;10.03;3.63;;;8.00;99.90;;;;;;6154450;23;20143;-91
2022/12/23 04:02:56;;;;;;;7.27;3.57;;;8.00;99.90;;;;;;6114219;23;20328;-91
2022/12/23 04:05:31;;;;;;;12.93;4.90;;;8.10;99.90;;;;;;6154714;23;20183;-92
2022/12/23 04:08:00;;;;;;;4.53;3.73;;;8.00;99.90;;;;;;6144653;23;20401;-90
2022/12/23 04:10:27;;;;;;;6.23;5.10;;;8.00;99.90;;;;;;6159817;23;20241;-91
2022/12/23 04:12:53;;;;;;;7.40;6.23;;;8.00;99.90;;;;;;6132816;23;20165;-90
2022/12/23 04:15:24;;;;;;;8.73;4.40;;;8.00;99.90;;;;;;6106034;23;20164;-91
2022/12/23 04:17:51;;;;;;;12.27;4.27;;;8.00;99.90;;;;;;6153748;23;20159;-90
2022/12/23 04:20:17;;;;;;;11.87;7.10;;;8.00;99.90;;;;;;6154587;23;20162;-90
2022/12/23 04:22:43;;;;;;;5.07;3.83;;;8.00;99.90;;;;;;6114537;23;20187;-91
2022/12/23 04:25:11;;;;;;;3.40;3.10;;;8.00;99.90;;;;;;6105528;23;20187;-90
2022/12/23 04:27:37;;;;;;;7.43;4.03;;;8.00;99.90;;;;;;6149052;23;20670;-91
2022/12/23 04:30:05;;;;;;;8.60;4.27;;;8.10;99.90;;;;;;6159265;23;20234;-91
2022/12/23 04:32:30;;;;;;;9.63;4.53;;;8.10;99.90;;;;;;6105657;23;20239;-91
2022/12/23 04:34:56;;;;;;;5.70;3.73;;;8.10;99.90;;;;;;6133746;23;20193;-90
2022/12/23 04:37:22;;;;;;;11.83;6.70;;;8.10;99.90;;;;;;6154667;23;20191;-90
2022/12/23 04:39:48;;;;;;;10.37;4.50;;;8.10;99.90;;;;;;6103956;23;20166;-91
2022/12/23 04:42:13;;;;;;;5.53;3.63;;;8.10;99.90;;;;;;6130092;23;20243;-90
2022/12/23 04:44:39;;;;;;;15.93;6.10;;;8.10;99.90;;;;;;6100052;23;20270;-90
2022/12/23 04:47:05;;;;;;;6.40;5.00;;;8.10;99.90;;;;;;6130063;23;20159;-90
2022/12/23 04:49:31;;;;;;;11.27;5.10;;;8.10;99.90;;;;;;6086951;23;20488;-90
2022/12/23 04:51:57;;;;;;;6.47;4.03;;;8.10;99.90;;;;;;6181195;23;20152;-90
2022/12/23 04:54:23;;;;;;;14.23;4.73;;;8.00;99.90;;;;;;6129888;23;20234;-90
2022/12/23 04:56:49;;;;;;;9.50;4.10;;;8.00;99.90;;;;;;6104486;23;20198;-90
2022/12/23 04:59:14;;;;;;;40.67;3.90;;;8.00;99.90;;;;;;6159891;23;20182;-91
2022/12/23 05:01:43;;;;;;;6.90;2.60;;;8.00;99.90;;;;;;6161691;23;20488;-90
2022/12/23 05:04:10;;;;;;;3.67;2.57;;;7.90;99.90;;;;;;6185524;23;20224;-90
2022/12/23 05:06:36;;;;;;;5.07;3.33;;;7.90;99.90;;;;;;6136911;23;20594;-91
2022/12/23 05:09:03;;;;;;;3.27;2.90;;;8.00;99.90;;;;;;6161032;23;20192;-90
2022/12/23 05:11:28;;;;;;;12.07;5.53;;;8.00;99.90;;;;;;6136853;23;20201;-90
2022/12/23 05:13:57;;;;;;;5.83;2.47;;;8.00;99.90;;;;;;6136921;23;20163;-90
2022/12/23 05:16:23;;;;;;;6.83;4.27;;;8.00;99.90;;;;;;6107281;23;20655;-91
2022/12/23 05:18:49;;;;;;;2.60;2.13;;;7.90;99.90;;;;;;6133604;23;20166;-90
2022/12/23 05:21:18;;;;;;;8.53;2.90;;;8.00;99.90;;;;;;6136946;23;20155;-90
2022/12/23 05:23:44;;;;;;;6.20;2.37;;;8.00;99.90;;;;;;6133233;23;20191;-90
2022/12/23 05:26:10;;;;;;;7.27;3.63;;;8.00;99.90;;;;;;6136548;23;20688;-90
2022/12/23 05:28:36;;;;;;;12.37;4.47;;;7.90;99.90;;;;;;6187338;23;20162;-90
2022/12/23 05:31:06;;;;;;;4.00;3.70;;;7.90;99.90;;;;;;6111617;23;20155;-90
2022/12/23 05:33:33;;;;;;;10.67;4.77;;;7.90;99.90;;;;;;6155631;23;20211;-90
2022/12/23 05:35:59;;;;;;;7.03;4.40;;;7.90;99.90;;;;;;6122141;23;20218;-90
2022/12/23 05:38:25;;;;;;;10.20;4.57;;;7.90;99.90;;;;;;6155686;23;20206;-90
2022/12/23 05:40:52;;;;;;;8.30;4.07;;;7.90;99.90;;;;;;6143643;23;20159;-90
2022/12/23 05:43:18;;;;;;;6.97;3.20;;;7.90;99.90;;;;;;6155984;23;20152;-91
2022/12/23 05:45:44;;;;;;;6.80;4.43;;;7.90;99.90;;;;;;6152835;23;20170;-89
2022/12/23 05:48:10;;;;;;;8.47;4.17;;;7.90;99.90;;;;;;6160930;23;20159;-90
2022/12/23 05:50:37;;;;;;;7.90;4.07;;;7.90;99.90;;;;;;6131404;23;20533;-90
2022/12/23 05:53:03;;;;;;;5.30;4.07;;;7.80;99.90;;;;;;6160502;23;20151;-90
2022/12/23 05:55:29;;;;;;;5.87;3.07;;;7.80;99.90;;;;;;6136400;23;20163;-91
2022/12/23 05:57:55;;;;;;;3.70;3.33;;;7.70;99.90;;;;;;6134607;23;20603;-90
2022/12/23 06:00:21;;;;;;;4.50;2.80;;;7.70;99.90;;;;;;6155652;23;20159;-91
2022/12/23 06:02:47;;;;;;;7.67;4.20;;;7.70;99.90;;;;;;6153158;23;20674;-90
2022/12/23 06:05:13;;;;;;;10.23;3.67;;;7.70;99.90;;;;;;6160380;23;20191;-90
2022/12/23 06:07:39;;;;;;;13.67;4.30;;;7.70;99.90;;;;;;6187026;23;20155;-90
2022/12/23 06:10:07;;;;;;;2.67;2.47;;;7.70;99.90;;;;;;6161039;23;20190;-89
2022/12/23 06:12:33;;;;;;;2.10;1.90;;;7.70;99.90;;;;;;6136246;23;20190;-91
2022/12/23 06:14:59;;;;;;;11.90;4.77;;;7.80;99.90;;;;;;6127528;23;20197;-90
2022/12/23 06:17:25;;;;;;;6.93;4.00;;;7.80;99.90;;;;;;6155632;23;20521;-92
2022/12/23 06:19:51;;;;;;;4.10;3.37;;;7.80;99.90;;;;;;6130726;23;20242;-91
2022/12/23 06:22:19;;;;;;;8.03;3.93;;;7.80;99.90;;;;;;6136316;23;20185;-90
2022/12/23 06:24:45;;;;;;;9.37;4.40;;;7.80;99.90;;;;;;6158429;23;20187;-91
2022/12/23 06:27:11;;;;;;;7.53;4.30;;;7.80;99.90;;;;;;6135790;23;20222;-92
2022/12/23 06:29:37;;;;;;;6.00;2.57;;;7.80;99.90;;;;;;6135649;23;20159;-93
2022/12/23 06:32:03;;;;;;;9.33;4.87;;;7.80;99.90;;;;;;6160059;23;20455;-92
2022/12/23 06:34:30;;;;;;;3.03;2.27;;;7.90;99.90;;;;;;6160195;23;20221;-92
2022/12/23 06:36:56;;;;;;;9.90;3.63;;;7.80;99.90;;;;;;6161017;23;20461;-93
2022/12/23 06:39:25;;;;;;;2.47;1.57;;;7.80;99.90;;;;;;6136066;23;20169;-93
2022/12/23 06:41:51;;;;;;;4.63;3.67;;;7.90;99.90;;;;;;6160749;23;20492;-93
2022/12/23 06:44:17;;;;;;;6.70;3.73;;;7.90;99.90;;;;;;6160329;23;20183;-91
2022/12/23 06:46:42;;;;;;;5.63;3.70;;;7.80;99.90;;;;;;6111729;23;20155;-91
2022/12/23 06:49:08;;;;;;;8.70;4.00;;;7.90;99.90;;;;;;6135763;23;20257;-90
2022/12/23 06:51:34;;;;;;;5.20;2.40;;;7.90;99.90;;;;;;6126995;23;20594;-91
2022/12/23 06:54:00;;;;;;;5.93;2.07;;;7.90;99.90;;;;;;6159571;23;20165;-90
2022/12/23 06:56:26;;;;;;;7.30;4.13;;;7.80;99.90;;;;;;6160315;23;20155;-92
2022/12/23 06:58:52;;;;;;;5.80;4.20;;;7.80;99.90;;;;;;6160084;23;20593;-90
2022/12/23 07:01:21;;;;;;;3.10;2.80;;;7.80;99.90;;;;;;6160598;23;20202;-88
2022/12/23 07:03:48;;;;;;;3.87;1.17;;;7.80;99.90;;;;;;6159871;23;20178;-90
2022/12/23 07:06:14;;;;;;;4.63;2.90;;;7.70;99.90;;;;;;6159953;23;20601;-89
2022/12/23 07:08:40;;;;;;;2.90;2.07;;;7.70;99.90;;;;;;6135201;23;20163;-89
2022/12/23 07:11:06;;;;;;;3.80;2.97;;;7.70;99.90;;;;;;6135308;23;20154;-90
2022/12/23 07:13:32;;;;;;;4.93;2.60;;;7.70;99.90;;;;;;6160282;23;20489;-90
2022/12/23 07:16:03;;;;;;;6.27;1.33;;;7.70;99.90;;;;;;6110798;23;20158;-91
2022/12/23 07:18:28;;;;;;;11.03;3.87;;;7.70;99.90;;;;;;6159864;23;20146;-89
2022/12/23 07:20:58;;;;;;;10.33;3.03;;;7.70;99.90;;;;;;6135262;23;20159;-90
2022/12/23 07:23:27;;;;;;;4.13;2.07;;;7.70;99.90;;;;;;6135179;23;20155;-90
2022/12/23 07:25:54;;;;;;;3.60;2.80;;;7.70;99.90;;;;;;6111763;23;20158;-90
2022/12/23 07:28:23;;;;;;;3.47;2.60;;;7.80;99.90;;;;;;6136658;23;20154;-89
2022/12/23 07:30:49;;;;;;;9.37;3.20;;;7.80;99.90;;;;;;6159908;23;20159;-91
2022/12/23 07:33:15;;;;;;;6.77;2.87;;;7.80;99.90;;;;;;6103392;23;20262;-91
2022/12/23 07:35:41;;;;;;;3.77;2.23;;;7.80;99.90;;;;;;6129564;23;20301;-88
2022/12/23 07:38:07;;;;;;;4.27;3.57;;;7.80;99.90;;;;;;6130201;23;20190;-89
2022/12/23 07:40:34;;;;;;;9.33;5.07;;;7.70;99.90;;;;;;6123681;23;20491;-89
2022/12/23 07:43:00;;;;;;;5.00;3.87;;;7.70;99.90;;;;;;6105202;23;20170;-89
2022/12/23 07:45:28;;;;;;;7.17;5.10;;;7.70;99.90;;;;;;6121718;23;20195;-89
2022/12/23 07:47:55;;;;;;;5.93;4.50;;;7.60;99.90;;;;;;6155848;23;20226;-89
2022/12/23 07:50:21;;;;;;;5.90;3.47;;;7.60;99.90;;;;;;6145625;23;20167;-90
2022/12/23 07:52:47;;;;;;;4.00;3.60;;;7.60;99.90;;;;;;6129853;23;20151;-90
2022/12/23 07:55:13;;;;;;;6.30;5.13;;;7.60;99.90;;;;;;6119737;23;20160;-89
2022/12/23 07:57:39;;;;;;;9.60;5.40;;;7.60;99.90;;;;;;6104932;23;20160;-88
2022/12/23 08:00:07;;;;;;;6.93;3.03;;;7.70;99.90;;;;;;6081487;23;20521;-90
2022/12/23 08:02:33;;;;;;;6.27;4.03;;;7.70;99.90;;;;;;6156000;23;20234;-90
2022/12/23 08:04:59;;;;;;;8.30;3.43;;;7.70;99.90;;;;;;6105859;23;20635;-89
2022/12/23 08:07:25;;;;;;;11.57;4.23;;;7.70;99.90;;;;;;6154893;23;20163;-91
2022/12/23 08:09:50;;;;;;;10.60;4.13;;;7.70;99.90;;;;;;6129888;23;20167;-91
2022/12/23 08:12:16;;;;;;;7.27;4.13;;;7.80;99.90;;;;;;6096232;23;20162;-90
2022/12/23 08:14:42;;;;;;;4.13;3.77;;;7.80;99.90;;;;;;6105655;23;20569;-90
2022/12/23 08:17:08;;;;;;;5.63;5.20;;;7.80;99.90;;;;;;6105401;23;20159;-91
2022/12/23 08:19:33;;;;;;;17.70;7.40;;;7.80;99.90;;;;;;6130165;23;20537;-89
2022/12/23 08:21:59;;;;;;;8.90;4.23;;;7.80;99.90;;;;;;6155305;23;20163;-89
2022/12/23 08:24:25;;;;;;;12.20;4.77;;;7.80;99.90;;;;;;6129747;23;20187;-90
2022/12/23 08:26:51;;;;;;;4.50;3.97;;;7.80;99.90;;;;;;6154567;23;20186;-89
2022/12/23 08:29:16;;;;;;;11.57;6.60;;;7.80;99.90;;;;;;6129648;23;20666;-90
2022/12/23 08:31:42;;;;;;;8.13;6.80;;;7.80;99.90;;;;;;6105297;23;20240;-90
2022/12/23 08:34:09;;;;;;;8.97;4.20;;;7.80;99.90;;;;;;6172466;23;20198;-90
2022/12/23 08:36:35;;;;;;;6.23;3.60;;;7.70;99.90;;;;;;6112314;23;20158;-90
2022/12/23 08:39:04;;;;;;;20.97;13.67;;;7.70;99.90;;;;;;6161235;23;20210;-90
2022/12/23 08:41:34;;;;;;;11.80;5.10;;;7.70;99.90;;;;;;6160522;23;20165;-90
2022/12/23 08:44:00;;;;;;;13.20;4.77;;;7.70;99.90;;;;;;6160928;23;20190;-89
2022/12/23 08:46:26;;;;;;;12.10;4.17;;;7.70;99.90;;;;;;6159642;23;20162;-91
2022/12/23 08:48:52;;;;;;;2.13;1.93;;;7.70;99.90;;;;;;6161061;23;20241;-91
2022/12/23 08:51:22;;;;;;;8.00;6.13;;;7.80;99.90;;;;;;6161050;23;20154;-91
2022/12/23 08:53:49;;;;;;;2.33;2.20;;;7.80;99.90;;;;;;6161377;23;20166;-92
2022/12/23 08:56:20;;;;;;;3.73;2.33;;;7.80;99.90;;;;;;6161390;23;20151;-91
2022/12/23 08:58:48;;;;;;;3.50;2.93;;;7.90;99.90;;;;;;6161168;23;20151;-89
2022/12/23 09:01:16;;;;;;;2.77;2.30;;;7.90;99.90;;;;;;6186589;23;20169;-89
2022/12/23 09:03:42;;;;;;;10.40;2.63;;;7.90;99.90;;;;;;6186510;23;20222;-90
2022/12/23 09:06:14;;;;;;;8.33;5.37;;;8.00;99.90;;;;;;6136452;23;20209;-88
2022/12/23 09:08:40;;;;;;;4.43;4.03;;;8.00;99.90;;;;;;6186451;23;20239;-89
2022/12/23 09:11:16;;;;;;;7.10;4.47;;;8.10;99.90;;;;;;6136425;23;20186;-88
2022/12/23 09:13:42;;;;;;;11.93;4.17;;;8.10;99.90;;;;;;6161491;23;20201;-89
2022/12/23 09:16:08;;;;;;;4.97;4.20;;;8.10;99.90;;;;;;6161289;23;20159;-89
2022/12/23 09:18:35;;;;;;;5.63;2.93;;;8.10;99.90;;;;;;6160644;23;20182;-89
2022/12/23 09:21:04;;;;;;;3.37;2.73;;;8.20;99.90;;;;;;6160889;23;20155;-90
2022/12/23 09:23:30;;;;;;;1.20;1.10;;;8.30;99.90;;;;;;6160490;23;20171;-90
2022/12/23 09:25:56;;;;;;;2.00;1.90;;;8.30;99.90;;;;;;6160980;23;20221;-90
2022/12/23 09:28:23;;;;;;;3.57;2.13;;;8.30;99.90;;;;;;6160027;23;20186;-89
2022/12/23 09:30:48;;;;;;;4.73;2.50;;;8.40;99.90;;;;;;6186867;23;20150;-88
2022/12/23 09:33:14;;;;;;;2.27;1.83;;;8.60;99.90;;;;;;6160435;23;20665;-89
2022/12/23 09:35:40;;;;;;;1.53;1.37;;;8.70;99.90;;;;;;6110872;23;20622;-90
2022/12/23 09:38:06;;;;;;;2.20;1.53;;;8.70;99.90;;;;;;6135556;23;20702;-91
2022/12/23 09:40:34;;;;;;;8.70;2.63;;;8.70;99.90;;;;;;6160826;23;20510;-89
2022/12/23 09:43:27;;;;;;;4.17;1.80;;;8.60;99.90;;;;;;6161365;23;20139;-91
2022/12/23 09:45:59;;;;;;;1.47;1.33;;;8.70;99.90;;;;;;6159807;23;20163;-91
2022/12/23 09:48:33;;;;;;;8.10;2.40;;;8.60;99.90;;;;;;6160472;23;20147;-89
2022/12/23 09:50:59;;;;;;;6.70;2.97;;;8.70;99.90;;;;;;6168165;23;20174;-90
2022/12/23 09:53:51;;;;;;;5.70;3.50;;;8.70;99.90;;;;;;6110084;23;20237;-88
2022/12/23 09:56:38;;;;;;;3.97;2.40;;;8.70;99.90;;;;;;6151399;23;20147;-89
2022/12/23 09:59:42;;;;;;;3.00;1.93;;;8.80;99.90;;;;;;6159782;23;20147;-89
2022/12/23 10:02:25;;;;;;;2.20;1.63;;;8.90;99.90;;;;;;6160201;23;20167;-89
2022/12/23 10:05:19;;;;;;;6.83;2.57;;;8.90;99.90;;;;;;6160420;23;20257;-89
2022/12/23 10:07:51;;;;;;;1.70;1.63;;;8.80;99.90;;;;;;6168868;23;20648;-89
2022/12/23 10:10:25;;;;;;;1.93;1.83;;;8.80;99.90;;;;;;6159698;23;20205;-89
2022/12/23 10:12:54;;;;;;;1.90;1.50;;;8.80;99.90;;;;;;6160262;23;20593;-90
2022/12/23 10:15:38;;;;;;;2.30;1.80;;;8.80;99.90;;;;;;6159868;23;20167;-89
2022/12/23 10:18:17;;;;;;;2.43;1.50;;;8.70;99.90;;;;;;6160878;23;20151;-89
2022/12/23 10:20:49;;;;;;;2.67;1.83;;;8.70;99.90;;;;;;6160828;23;20226;-89
2022/12/23 10:23:31;;;;;;;2.13;2.03;;;8.70;99.90;;;;;;6159920;23;20177;-90
2022/12/23 10:25:57;;;;;;;8.10;2.70;;;8.70;99.90;;;;;;6161390;23;20517;-90
2022/12/23 10:28:23;;;;;;;4.70;2.93;;;8.60;99.90;;;;;;6135789;23;20155;-90
2022/12/23 10:31:02;;;;;;;3.03;2.27;;;8.70;99.90;;;;;;6136451;23;20185;-89
2022/12/23 10:33:45;;;;;;;2.87;2.53;;;8.70;99.90;;;;;;6160121;23;20194;-90
2022/12/23 10:36:26;;;;;;;5.10;3.50;;;8.70;99.90;;;;;;6158480;23;20309;-90
2022/12/23 10:39:07;;;;;;;4.97;3.37;;;8.70;99.90;;;;;;6184624;23;20230;-90
2022/12/23 10:42:17;;;;;;;1.03;1.03;;;8.60;99.90;;;;;;6159775;23;20237;-89
2022/12/23 10:45:09;;;;;;;4.10;2.40;;;8.60;99.90;;;;;;6079603;23;20212;-90
2022/12/23 10:47:54;;;;;;;3.37;2.83;;;8.70;99.90;;;;;;6158288;23;20143;-91
2022/12/23 10:50:38;;;;;;;5.20;4.70;;;8.70;99.90;;;;;;6154572;23;20289;-85
2022/12/23 10:53:09;;;;;;;3.30;2.97;;;8.70;99.90;;;;;;6213279;23;20184;-85
2022/12/23 10:55:37;;;;;;;3.93;2.73;;;8.70;99.90;;;;;;6214382;23;20169;-85
2022/12/23 10:58:24;;;;;;;7.37;1.97;;;8.70;99.90;;;;;;6187236;23;20185;-85
2022/12/23 11:00:56;;;;;;;4.10;2.47;;;8.80;99.90;;;;;;6214323;23;20253;-85
2022/12/23 11:03:29;;;;;;;3.00;2.70;;;8.70;99.90;;;;;;6187374;23;20367;-85
2022/12/23 11:05:57;;;;;;;3.10;2.77;;;8.70;99.90;;;;;;6210417;23;20613;-84
2022/12/23 11:08:26;;;;;;;2.73;1.63;;;8.70;99.90;;;;;;6211307;23;20169;-84
2022/12/23 11:10:53;;;;;;;2.23;2.10;;;8.70;99.90;;;;;;6213395;23;20169;-85
2022/12/23 11:13:40;;;;;;;1.53;1.43;;;8.70;99.90;;;;;;6214006;23;20170;-85
2022/12/23 11:16:26;;;;;;;2.47;2.37;;;8.80;99.90;;;;;;6212960;23;20197;-85
2022/12/23 11:19:13;;;;;;;1.67;1.57;;;8.80;99.90;;;;;;6212469;23;20248;-85
2022/12/23 11:22:01;;;;;;;1.87;1.77;;;8.80;99.90;;;;;;6212143;23;20278;-85
2022/12/23 11:24:31;;;;;;;1.40;1.10;;;8.90;99.90;;;;;;6163902;23;20547;-85
2022/12/23 11:27:02;;;;;;;2.67;2.17;;;8.80;99.90;;;;;;6189130;23;20560;-85
2022/12/23 11:29:42;;;;;;;1.93;0.90;;;8.80;99.90;;;;;;6214213;23;20258;-85
2022/12/23 11:32:22;;;;;;;6.23;2.10;;;8.80;99.90;;;;;;6214175;23;20173;-85
2022/12/23 11:34:49;;;;;;;1.80;1.17;;;8.80;99.90;;;;;;6213460;23;20176;-85
2022/12/23 11:37:40;;;;;;;2.63;1.63;;;8.80;99.90;;;;;;6212291;23;20606;-85
2022/12/23 11:40:20;;;;;;;3.77;1.17;;;8.80;99.90;;;;;;6214262;23;20495;-85
2022/12/23 11:42:46;;;;;;;5.50;3.20;;;8.80;99.90;;;;;;6213857;23;20165;-86
2022/12/23 11:45:21;;;;;;;2.30;2.20;;;8.80;99.90;;;;;;6214097;23;20236;-86
2022/12/23 11:47:48;;;;;;;3.87;1.40;;;8.80;99.90;;;;;;6186698;23;20219;-85
2022/12/23 11:50:33;;;;;;;2.23;1.47;;;8.80;99.90;;;;;;6185814;23;20174;-85
2022/12/23 11:53:17;;;;;;;2.77;1.77;;;8.90;99.90;;;;;;6186433;23;20189;-85
2022/12/23 11:55:56;;;;;;;1.43;1.33;;;8.90;99.90;;;;;;6213611;23;20572;-85
2022/12/23 11:58:23;;;;;;;1.77;1.40;;;9.00;99.90;;;;;;6212681;23;20154;-85
2022/12/23 12:00:58;;;;;;;2.27;1.87;;;9.00;99.90;;;;;;6163918;23;20184;-86
2022/12/23 12:03:32;;;;;;;2.30;1.97;;;9.00;99.90;;;;;;6212259;23;20149;-87
2022/12/23 12:06:01;;;;;;;5.87;2.03;;;9.00;99.90;;;;;;6212047;23;20150;-86
2022/12/23 12:08:35;;;;;;;1.70;1.53;;;9.00;99.90;;;;;;6212923;23;20158;-86
2022/12/23 12:11:22;;;;;;;1.63;1.53;;;9.00;99.90;;;;;;6205937;23;20248;-85
2022/12/23 12:13:53;;;;;;;2.43;2.23;;;9.00;99.90;;;;;;6209237;23;20154;-85
2022/12/23 12:16:28;;;;;;;1.77;1.67;;;9.00;99.90;;;;;;6161815;23;20244;-86
2022/12/23 12:18:58;;;;;;;1.50;1.40;;;9.00;99.90;;;;;;6208406;23;20177;-86
2022/12/23 12:21:27;;;;;;;4.30;1.63;;;9.00;99.90;;;;;;6211358;23;20201;-86
2022/12/23 12:24:04;;;;;;;2.43;2.23;;;9.00;99.90;;;;;;6187593;23;20182;-87
2022/12/23 12:26:33;;;;;;;1.87;1.77;;;9.00;99.90;;;;;;6186900;23;20154;-85
2022/12/23 12:29:34;;;;;;;2.30;2.03;;;9.00;99.90;;;;;;6213697;23;20162;-86
2022/12/23 12:32:02;;;;;;;2.83;1.80;;;9.00;99.90;;;;;;6184341;23;20154;-84
2022/12/23 12:34:50;;;;;;;2.00;1.47;;;9.00;99.90;;;;;;6179429;23;20185;-86
2022/12/23 12:37:54;;;;;;;4.27;2.60;;;9.00;99.90;;;;;;6180930;23;20216;-84
2022/12/23 12:40:41;;;;;;;1.87;1.40;;;8.90;99.90;;;;;;6177897;23;20440;-83
2022/12/23 12:43:25;;;;;;;2.07;1.97;;;8.90;99.90;;;;;;6179960;23;20605;-84
2022/12/23 12:46:11;;;;;;;5.73;3.13;;;8.90;99.90;;;;;;6181510;23;20230;-84
2022/12/23 12:49:02;;;;;;;2.10;1.90;;;8.90;99.90;;;;;;6180403;23;20575;-84
2022/12/23 12:52:01;;;;;;;3.47;1.40;;;8.90;99.90;;;;;;6178280;23;20147;-84
2022/12/23 12:54:38;;;;;;;3.30;2.03;;;8.90;99.90;;;;;;6177937;23;20151;-85
2022/12/23 12:57:04;;;;;;;2.23;1.97;;;8.80;99.90;;;;;;6182362;23;20150;-84
2022/12/23 12:59:34;;;;;;;2.37;2.17;;;8.80;99.90;;;;;;6129733;23;20928;-85
2022/12/23 13:02:30;;;;;;;2.57;1.97;;;8.80;99.90;;;;;;6177336;23;20173;-84
2022/12/23 13:05:11;;;;;;;3.63;2.27;;;8.80;99.90;;;;;;6176784;23;20181;-84
2022/12/23 13:08:18;;;;;;;2.43;2.10;;;8.70;99.90;;;;;;6178034;23;20464;-85
2022/12/23 13:11:04;;;;;;;2.40;2.23;;;8.70;99.90;;;;;;6180556;23;20158;-85
2022/12/23 13:13:33;;;;;;;3.00;1.27;;;8.70;99.90;;;;;;6179383;23;20210;-85
2022/12/23 13:16:27;;;;;;;1.67;1.57;;;8.70;99.90;;;;;;6180088;23;20159;-86
2022/12/23 13:19:30;;;;;;;2.87;2.10;;;8.60;99.90;;;;;;6182069;23;20158;-84
2022/12/23 13:22:10;;;;;;;9.10;2.20;;;8.50;99.90;;;;;;6181699;23;20178;-85
2022/12/23 13:24:54;;;;;;;3.07;2.83;;;8.40;99.90;;;;;;6181345;23;20657;-85
2022/12/23 13:27:43;;;;;;;3.00;2.57;;;8.40;99.90;;;;;;6181879;23;20163;-85
2022/12/23 13:30:18;;;;;;;2.00;1.90;;;8.40;99.90;;;;;;6182790;23;20558;-85
2022/12/23 13:33:05;;;;;;;3.47;2.70;;;8.30;99.90;;;;;;6182599;23;20143;-85
2022/12/23 13:35:52;;;;;;;2.43;2.23;;;8.30;99.90;;;;;;6181095;23;20163;-84
2022/12/23 13:38:24;;;;;;;0.83;0.83;;;8.30;99.90;;;;;;6183726;23;20293;-85
2022/12/23 13:41:03;;;;;;;4.10;1.30;;;8.20;99.90;;;;;;6181528;23;20144;-84
2022/12/23 13:43:57;;;;;;;2.63;2.53;;;8.10;99.90;;;;;;6182873;23;20143;-84
2022/12/23 13:46:47;;;;;;;1.43;1.20;;;8.10;99.90;;;;;;6182248;23;20155;-85
2022/12/23 13:50:07;;;;;;;6.73;1.93;;;8.10;99.90;;;;;;6182673;23;20190;-85